Time;durP1;ratioP1;P1;durP2;ratioP2;P2;SDS_P1;SDS_P2;PMS_P1;PMS_P2;Temp;Humidity;BMP_temperature;BMP_pressure;BME280_temperature;BME280_humidity;BME280_pressure;Samples;Min_cycle;Max_cycle;Signal;HPM_P1;HPM_P2
2024/02/08 00:02:24;;;;;;;1.20;0.60;;;8.60;99.90;;;;;;4982278;28;20445;-49
2024/02/08 00:04:52;;;;;;;1.47;0.77;;;8.60;99.90;;;;;;4981726;28;20467;-50
2024/02/08 00:07:20;;;;;;;1.93;0.70;;;8.60;99.90;;;;;;4985098;28;20508;-47
2024/02/08 00:09:50;;;;;;;1.30;0.90;;;8.60;99.90;;;;;;4983314;28;20596;-47
2024/02/08 00:12:20;;;;;;;1.70;1.13;;;8.60;99.90;;;;;;4986413;28;20533;-48
2024/02/08 00:14:52;;;;;;;2.07;0.87;;;8.60;99.90;;;;;;4967717;28;20490;-47
2024/02/08 00:17:21;;;;;;;1.60;0.87;;;8.60;99.90;;;;;;4967035;28;20883;-46
2024/02/08 00:19:50;;;;;;;1.60;0.77;;;8.60;99.90;;;;;;4984405;28;20461;-47
2024/02/08 00:22:21;;;;;;;1.60;0.97;;;8.60;99.90;;;;;;4984310;28;20436;-48
2024/02/08 00:24:53;;;;;;;1.80;0.80;;;8.60;99.90;;;;;;4982165;28;20469;-47
2024/02/08 00:27:22;;;;;;;1.33;0.60;;;8.60;99.90;;;;;;4983435;28;20508;-46
2024/02/08 00:29:53;;;;;;;1.10;0.50;;;8.60;99.90;;;;;;4983155;28;20477;-47
2024/02/08 00:32:22;;;;;;;1.77;0.80;;;8.60;99.90;;;;;;4978749;28;20967;-47
2024/02/08 00:34:50;;;;;;;1.27;0.60;;;8.60;99.90;;;;;;4984040;28;20971;-47
2024/02/08 00:37:19;;;;;;;1.33;0.77;;;8.60;99.90;;;;;;4965908;28;20485;-48
2024/02/08 00:39:47;;;;;;;1.93;0.70;;;8.60;99.90;;;;;;4981971;28;20523;-47
2024/02/08 00:42:15;;;;;;;1.90;0.90;;;8.60;99.90;;;;;;4979108;28;20434;-47
2024/02/08 00:44:44;;;;;;;1.60;1.00;;;8.60;99.90;;;;;;4983919;28;21066;-47
2024/02/08 00:47:13;;;;;;;1.80;1.00;;;8.60;99.90;;;;;;4982600;28;20445;-47
2024/02/08 00:49:42;;;;;;;1.67;0.87;;;8.60;99.90;;;;;;4983607;28;20469;-49
2024/02/08 00:52:10;;;;;;;1.60;0.70;;;8.60;99.90;;;;;;4984390;28;20931;-47
2024/02/08 00:54:38;;;;;;;1.90;1.00;;;8.60;99.90;;;;;;4984944;28;20836;-46
2024/02/08 00:57:10;;;;;;;1.40;0.80;;;8.60;99.90;;;;;;4976710;28;20445;-47
2024/02/08 00:59:39;;;;;;;1.30;0.67;;;8.60;99.90;;;;;;4983869;28;20468;-48
2024/02/08 01:02:09;;;;;;;1.87;1.30;;;8.60;99.90;;;;;;4979597;28;20874;-47
2024/02/08 01:04:39;;;;;;;1.60;1.10;;;8.60;99.90;;;;;;4980897;28;20470;-48
2024/02/08 01:07:07;;;;;;;1.63;0.90;;;8.60;99.90;;;;;;4983580;28;20481;-48
2024/02/08 01:09:36;;;;;;;1.30;0.90;;;8.60;99.90;;;;;;4984061;28;20450;-47
2024/02/08 01:12:04;;;;;;;1.47;0.80;;;8.60;99.90;;;;;;4977150;28;20481;-48
2024/02/08 01:14:33;;;;;;;1.63;0.70;;;8.60;99.90;;;;;;4983839;28;20536;-48
2024/02/08 01:17:04;;;;;;;1.83;1.50;;;8.50;99.90;;;;;;4980153;28;20446;-49
2024/02/08 01:19:34;;;;;;;1.20;0.67;;;8.50;99.90;;;;;;4985102;28;21006;-49
2024/02/08 01:22:04;;;;;;;2.30;0.83;;;8.50;99.90;;;;;;4983021;28;20445;-48
2024/02/08 01:24:34;;;;;;;1.40;0.73;;;8.50;99.90;;;;;;4977305;28;21043;-47
2024/02/08 01:27:04;;;;;;;1.60;1.00;;;8.50;99.90;;;;;;4980095;28;20461;-48
2024/02/08 01:29:33;;;;;;;1.40;0.90;;;8.50;99.90;;;;;;4982030;28;20940;-46
2024/02/08 01:32:02;;;;;;;1.47;0.93;;;8.50;99.90;;;;;;4975559;28;20450;-47
2024/02/08 01:34:31;;;;;;;1.20;0.50;;;8.50;99.90;;;;;;4981248;28;21057;-48
2024/02/08 01:37:03;;;;;;;1.83;0.80;;;8.50;99.90;;;;;;4981674;28;20440;-48
2024/02/08 01:39:33;;;;;;;1.40;0.60;;;8.50;99.90;;;;;;4980508;28;20513;-46
2024/02/08 01:42:02;;;;;;;1.80;0.83;;;8.50;99.90;;;;;;4979497;28;20422;-49
2024/02/08 01:44:30;;;;;;;1.30;0.67;;;8.50;99.90;;;;;;4979367;28;20496;-46
2024/02/08 01:47:00;;;;;;;1.40;0.77;;;8.50;99.90;;;;;;4980959;28;20545;-45
2024/02/08 01:49:32;;;;;;;1.63;1.00;;;8.50;99.90;;;;;;4965795;28;20464;-46
2024/02/08 01:52:01;;;;;;;1.80;0.77;;;8.50;99.90;;;;;;4965224;28;20804;-48
2024/02/08 01:54:31;;;;;;;1.53;0.80;;;8.50;99.90;;;;;;4982791;28;20552;-47
2024/02/08 01:57:03;;;;;;;1.63;0.70;;;8.50;99.90;;;;;;4978672;28;20449;-49
2024/02/08 01:59:32;;;;;;;1.20;0.60;;;8.50;99.90;;;;;;4983644;28;20843;-47
2024/02/08 02:02:02;;;;;;;1.67;0.93;;;8.50;99.90;;;;;;4979456;28;20462;-47
2024/02/08 02:04:31;;;;;;;1.63;1.03;;;8.50;99.90;;;;;;4979387;28;20465;-47
2024/02/08 02:07:02;;;;;;;1.60;0.80;;;8.50;99.90;;;;;;4982127;28;20461;-47
2024/02/08 02:09:31;;;;;;;1.40;0.70;;;8.50;99.90;;;;;;4982333;28;20464;-47
2024/02/08 02:12:08;;;;;;;1.40;0.70;;;8.50;99.90;;;;;;4975104;28;20481;-47
2024/02/08 02:14:38;;;;;;;1.17;0.50;;;8.50;99.90;;;;;;4982167;28;20474;-49
2024/02/08 02:17:11;;;;;;;1.80;1.20;;;8.50;99.90;;;;;;4977429;28;20878;-48
2024/02/08 02:19:40;;;;;;;1.90;0.80;;;8.50;99.90;;;;;;4982964;28;20553;-47
2024/02/08 02:22:12;;;;;;;1.40;0.90;;;8.50;99.90;;;;;;4984408;28;20441;-47
2024/02/08 02:24:43;;;;;;;1.65;0.88;;;8.50;99.90;;;;;;4982625;28;20457;-47
2024/02/08 02:27:13;;;;;;;1.70;0.70;;;8.50;99.90;;;;;;4981106;28;20210;-47
2024/02/08 02:29:44;;;;;;;1.50;1.00;;;8.50;99.90;;;;;;4966118;28;20464;-48
2024/02/08 02:32:15;;;;;;;1.57;0.93;;;8.40;99.90;;;;;;4978560;28;20512;-49
2024/02/08 02:34:46;;;;;;;3.23;0.83;;;8.40;99.90;;;;;;4965354;28;21044;-47
2024/02/08 02:37:18;;;;;;;1.20;0.77;;;8.40;99.90;;;;;;4982637;28;20501;-47
2024/02/08 02:39:47;;;;;;;1.00;0.50;;;8.40;99.90;;;;;;4982618;28;20465;-48
2024/02/08 02:42:16;;;;;;;1.60;0.57;;;8.40;99.90;;;;;;4965898;28;20703;-48
2024/02/08 02:44:44;;;;;;;1.27;0.60;;;8.40;99.90;;;;;;4967444;28;20484;-48
2024/02/08 02:47:13;;;;;;;3.97;0.90;;;8.40;99.90;;;;;;4981426;28;20467;-49
2024/02/08 02:49:42;;;;;;;1.80;0.90;;;8.40;99.90;;;;;;4986888;28;20468;-47
2024/02/08 02:52:10;;;;;;;1.40;0.80;;;8.40;99.90;;;;;;4986156;28;20426;-49
2024/02/08 02:54:42;;;;;;;1.60;1.00;;;8.40;99.90;;;;;;4986929;28;20465;-48
2024/02/08 02:57:11;;;;;;;1.90;1.10;;;8.40;99.90;;;;;;4984349;28;20645;-48
2024/02/08 02:59:42;;;;;;;1.70;0.80;;;8.40;99.90;;;;;;4987065;28;20998;-46
2024/02/08 03:02:11;;;;;;;1.40;0.77;;;8.40;99.90;;;;;;4984954;28;20457;-46
2024/02/08 03:04:40;;;;;;;1.90;0.70;;;8.40;99.90;;;;;;4989981;28;20469;-46
2024/02/08 03:07:10;;;;;;;1.53;0.77;;;8.40;99.90;;;;;;4992589;28;21024;-46
2024/02/08 03:09:40;;;;;;;1.83;0.90;;;8.40;99.90;;;;;;4992972;28;20477;-46
2024/02/08 03:12:09;;;;;;;1.58;0.82;;;8.40;99.90;;;;;;4992705;28;20453;-46
2024/02/08 03:14:38;;;;;;;1.40;0.73;;;8.40;99.90;;;;;;4992575;28;20238;-46
2024/02/08 03:17:06;;;;;;;1.50;1.10;;;8.40;99.90;;;;;;4987660;28;20445;-46
2024/02/08 03:19:36;;;;;;;1.37;0.77;;;8.40;99.90;;;;;;4992640;28;20450;-46
2024/02/08 03:22:07;;;;;;;1.10;0.40;;;8.40;99.90;;;;;;4992059;28;20475;-46
2024/02/08 03:24:37;;;;;;;1.50;1.00;;;8.30;99.90;;;;;;4975402;28;20469;-46
2024/02/08 03:27:13;;;;;;;1.40;0.90;;;8.40;99.90;;;;;;4990855;28;20477;-46
2024/02/08 03:29:42;;;;;;;1.50;0.93;;;8.30;99.90;;;;;;4992510;28;20544;-46
2024/02/08 03:32:10;;;;;;;1.70;0.80;;;8.30;99.90;;;;;;4991459;28;20454;-46
2024/02/08 03:34:38;;;;;;;1.67;1.00;;;8.40;99.90;;;;;;4992498;28;20975;-46
2024/02/08 03:37:08;;;;;;;1.33;0.70;;;8.30;99.90;;;;;;4991406;28;20668;-46
2024/02/08 03:39:37;;;;;;;1.47;1.00;;;8.30;99.90;;;;;;4989323;28;20573;-46
2024/02/08 03:42:09;;;;;;;1.40;0.70;;;8.30;99.90;;;;;;4992288;28;20438;-46
2024/02/08 03:44:38;;;;;;;1.37;0.67;;;8.30;99.90;;;;;;4974537;28;20552;-46
2024/02/08 03:47:07;;;;;;;1.80;1.17;;;8.30;99.90;;;;;;4973232;28;20554;-46
2024/02/08 03:49:38;;;;;;;1.30;0.73;;;8.30;99.90;;;;;;4992408;28;20879;-46
2024/02/08 03:52:09;;;;;;;2.00;1.00;;;8.30;99.90;;;;;;4992560;28;20522;-46
2024/02/08 03:54:38;;;;;;;1.60;0.93;;;8.30;99.90;;;;;;4990346;28;20469;-46
2024/02/08 03:57:08;;;;;;;1.20;0.63;;;8.30;99.90;;;;;;4990809;28;20457;-46
2024/02/08 03:59:40;;;;;;;1.40;0.70;;;8.30;99.90;;;;;;4992386;28;20464;-45
2024/02/08 04:02:10;;;;;;;1.30;0.63;;;8.30;99.90;;;;;;4984614;28;20457;-45
2024/02/08 04:04:53;;;;;;;1.30;0.70;;;8.30;99.90;;;;;;4983983;28;20520;-46
2024/02/08 04:07:34;;;;;;;1.80;1.00;;;8.30;99.90;;;;;;4978332;28;20215;-46
2024/02/08 04:10:18;;;;;;;1.80;1.10;;;8.30;99.90;;;;;;4981966;28;21001;-46
2024/02/08 04:54:42;;;;;;;2.27;1.10;;;8.20;99.90;;;;;;4950904;28;20485;-46
2024/02/08 04:57:11;;;;;;;1.42;0.85;;;8.20;99.90;;;;;;4984477;28;20421;-46
2024/02/08 04:59:44;;;;;;;2.10;1.10;;;8.20;99.90;;;;;;4985581;28;20217;-45
2024/02/08 05:02:15;;;;;;;1.77;0.90;;;8.20;99.90;;;;;;4979960;28;20481;-46
2024/02/08 05:04:48;;;;;;;1.38;0.60;;;8.20;99.90;;;;;;4981120;28;20222;-46
2024/02/08 05:07:18;;;;;;;2.27;1.20;;;8.20;99.90;;;;;;4984865;28;20569;-46
2024/02/08 05:09:46;;;;;;;1.80;0.98;;;8.20;99.90;;;;;;4981276;28;20489;-45
2024/02/08 05:12:15;;;;;;;1.75;1.23;;;8.20;99.90;;;;;;4983904;28;20688;-46
2024/02/08 05:14:44;;;;;;;2.05;0.90;;;8.20;99.90;;;;;;4966238;28;20714;-46
2024/02/08 05:17:13;;;;;;;1.73;1.00;;;8.20;99.90;;;;;;4980435;28;20194;-46
2024/02/08 05:19:44;;;;;;;1.80;1.00;;;8.20;99.90;;;;;;4984613;28;20838;-46
2024/02/08 05:22:13;;;;;;;2.00;1.20;;;8.20;99.90;;;;;;4984857;28;20430;-46
2024/02/08 05:24:42;;;;;;;2.40;1.47;;;8.20;99.90;;;;;;4982407;28;20900;-46
2024/02/08 05:27:12;;;;;;;2.42;1.25;;;8.20;99.90;;;;;;4984220;28;20465;-47
2024/02/08 05:29:42;;;;;;;2.90;1.52;;;8.20;99.90;;;;;;4983959;28;20218;-46
2024/02/08 05:32:11;;;;;;;2.00;1.00;;;8.20;99.90;;;;;;4981842;28;20191;-46
2024/02/08 05:34:39;;;;;;;2.80;1.85;;;8.20;99.90;;;;;;4983390;28;20491;-46
2024/02/08 05:37:10;;;;;;;3.40;1.60;;;8.20;99.90;;;;;;4982549;28;20195;-46
2024/02/08 05:39:38;;;;;;;1.85;1.05;;;8.20;99.90;;;;;;4983993;28;20476;-46
2024/02/08 05:42:07;;;;;;;2.08;1.00;;;8.20;99.90;;;;;;4982416;28;20661;-46
2024/02/08 05:44:40;;;;;;;1.52;0.80;;;8.20;99.90;;;;;;4983795;28;20315;-46
2024/02/08 05:47:09;;;;;;;2.83;1.73;;;8.20;99.90;;;;;;4979673;28;20208;-47
2024/02/08 05:49:45;;;;;;;2.27;1.40;;;8.20;99.90;;;;;;4984827;28;20454;-47
2024/02/08 05:52:16;;;;;;;3.20;1.77;;;8.20;99.90;;;;;;4984892;28;20523;-46
2024/02/08 05:54:45;;;;;;;4.47;3.30;;;8.20;99.90;;;;;;4978716;28;20478;-47
2024/02/08 05:57:15;;;;;;;5.40;3.37;;;8.20;99.90;;;;;;4984155;28;20649;-47
2024/02/08 05:59:45;;;;;;;3.50;2.40;;;8.20;99.90;;;;;;4965927;28;20470;-49
2024/02/08 06:02:22;;;;;;;3.75;1.92;;;8.20;99.90;;;;;;4978879;28;20187;-47
2024/02/08 06:04:59;;;;;;;3.08;2.38;;;8.20;99.90;;;;;;4965639;28;20297;-50
2024/02/08 06:07:36;;;;;;;4.95;3.22;;;8.10;99.90;;;;;;4980117;28;20206;-48
2024/02/08 06:10:13;;;;;;;2.88;1.70;;;8.10;99.90;;;;;;4979011;28;20225;-47
2024/02/08 06:12:43;;;;;;;2.25;1.23;;;8.10;99.90;;;;;;4978971;28;20275;-50
2024/02/08 06:15:24;;;;;;;5.85;2.10;;;8.10;99.90;;;;;;4976493;28;20746;-47
2024/02/08 06:17:58;;;;;;;2.42;1.15;;;8.10;99.90;;;;;;4977040;28;20293;-50
2024/02/08 06:20:33;;;;;;;2.40;1.40;;;8.10;99.90;;;;;;4978258;28;20733;-50
2024/02/08 06:23:16;;;;;;;3.92;1.85;;;8.10;99.90;;;;;;4981147;28;20832;-48
2024/02/08 06:26:20;;;;;;;2.65;1.65;;;8.20;99.90;;;;;;4974026;28;20229;-48
2024/02/08 06:28:41;;;;;;;3.10;1.63;;;8.10;99.90;;;;;;4981384;28;20300;-46
2024/02/08 06:31:14;;;;;;;6.15;3.28;;;8.10;99.90;;;;;;4977671;28;20230;-48
2024/02/08 06:34:09;;;;;;;2.95;1.60;;;8.10;99.90;;;;;;4976181;28;20301;-47
2024/02/08 06:36:42;;;;;;;2.83;1.83;;;8.10;99.90;;;;;;4974803;28;20214;-47
2024/02/08 06:39:23;;;;;;;3.47;2.15;;;8.10;99.90;;;;;;4965175;28;20461;-46
2024/02/08 06:41:52;;;;;;;3.30;1.75;;;8.10;99.90;;;;;;4980805;28;20471;-48
2024/02/08 07:37:17;;;;;;;2.95;1.83;;;8.10;99.90;;;;;;4984576;28;20283;-47
2024/02/08 07:39:53;;;;;;;4.15;2.40;;;8.00;99.90;;;;;;4980545;28;20265;-48
2024/02/08 07:42:29;;;;;;;4.38;1.80;;;8.00;99.90;;;;;;4982118;28;20194;-46
2024/02/08 07:45:04;;;;;;;3.35;2.38;;;8.00;99.90;;;;;;4983795;28;20594;-48
2024/02/08 07:47:34;;;;;;;3.05;1.50;;;8.00;99.90;;;;;;4981711;28;20211;-49
2024/02/08 07:50:08;;;;;;;2.57;1.63;;;8.10;99.90;;;;;;4982856;28;20233;-45
2024/02/08 07:52:47;;;;;;;3.95;2.17;;;8.00;99.90;;;;;;4982835;28;20452;-47
2024/02/08 07:55:20;;;;;;;4.20;1.50;;;8.00;99.90;;;;;;4978591;28;20225;-47
2024/02/08 07:57:57;;;;;;;3.80;2.70;;;8.00;99.90;;;;;;4969034;28;20205;-47
2024/02/08 08:00:41;;;;;;;3.45;1.77;;;8.00;99.90;;;;;;4978052;28;20456;-47
2024/02/08 08:03:16;;;;;;;2.20;1.60;;;8.00;99.90;;;;;;4978990;28;20245;-50
2024/02/08 08:05:55;;;;;;;2.70;1.85;;;8.00;99.90;;;;;;4980154;28;20227;-49
2024/02/08 08:08:31;;;;;;;2.30;1.60;;;8.00;99.90;;;;;;4980593;28;20608;-47
2024/02/08 08:11:05;;;;;;;3.10;1.50;;;8.00;99.90;;;;;;4977081;28;20224;-47
2024/02/08 08:14:06;;;;;;;2.67;1.20;;;8.00;99.90;;;;;;4978332;28;20667;-48
2024/02/08 08:16:36;;;;;;;2.58;1.35;;;8.00;99.90;;;;;;4976075;28;20958;-47
2024/02/08 08:19:12;;;;;;;2.50;1.33;;;8.00;99.90;;;;;;4983885;28;20191;-47
2024/02/08 08:22:03;;;;;;;2.17;1.17;;;8.00;99.90;;;;;;4967866;28;20596;-47
2024/02/08 08:24:59;;;;;;;4.72;2.25;;;8.00;99.90;;;;;;4983559;28;20462;-48
2024/02/08 08:27:32;;;;;;;4.55;2.75;;;8.00;99.90;;;;;;4974160;28;20238;-47
2024/02/08 08:30:06;;;;;;;3.33;1.70;;;8.00;99.90;;;;;;4978180;28;20320;-50
2024/02/08 08:35:45;;;;;;;3.80;2.15;;;8.00;99.90;;;;;;4970698;28;21080;-48
2024/02/08 08:38:28;;;;;;;3.05;1.58;;;8.00;99.90;;;;;;4966897;28;20253;-47
2024/02/08 08:41:06;;;;;;;3.38;1.98;;;8.00;99.90;;;;;;4981541;28;20557;-47
2024/02/08 08:43:36;;;;;;;3.88;2.40;;;8.00;99.90;;;;;;4978452;28;20223;-47
2024/02/08 08:46:10;;;;;;;4.00;1.52;;;8.00;99.90;;;;;;4975121;28;20312;-50
2024/02/08 08:48:50;;;;;;;3.63;1.83;;;8.00;99.90;;;;;;4974448;28;20594;-47
2024/02/08 08:51:29;;;;;;;2.63;1.55;;;8.00;99.90;;;;;;4981406;28;20541;-47
2024/02/08 08:54:14;;;;;;;2.40;1.73;;;8.00;99.90;;;;;;4966391;28;20230;-46
2024/02/08 08:56:44;;;;;;;5.63;3.03;;;8.00;99.90;;;;;;4964004;28;20827;-48
2024/02/08 08:59:19;;;;;;;3.45;2.05;;;8.00;99.90;;;;;;4981864;28;20600;-46
2024/02/08 09:01:49;;;;;;;3.15;2.25;;;7.90;99.90;;;;;;4979929;28;20204;-47
2024/02/08 09:04:37;;;;;;;2.40;1.35;;;8.00;99.90;;;;;;4978390;28;20229;-48
2024/02/08 09:07:12;;;;;;;5.32;4.30;;;7.90;99.90;;;;;;4962289;28;20224;-50
2024/02/08 09:10:00;;;;;;;3.33;3.03;;;7.90;99.90;;;;;;4962715;28;20221;-48
2024/02/08 09:12:36;;;;;;;5.15;3.70;;;7.90;99.90;;;;;;4980231;28;20724;-47
2024/02/08 09:15:26;;;;;;;4.35;2.83;;;7.90;99.90;;;;;;4979941;28;20224;-47
2024/02/08 09:18:07;;;;;;;4.25;2.70;;;7.90;99.90;;;;;;4963736;28;20642;-47
2024/02/08 09:20:41;;;;;;;4.15;2.92;;;7.90;99.90;;;;;;4983138;28;20223;-48
2024/02/08 09:23:17;;;;;;;3.95;2.60;;;7.90;99.90;;;;;;4983752;28;20224;-47
2024/02/08 09:25:49;;;;;;;3.00;2.20;;;7.90;99.90;;;;;;4973113;28;20222;-48
2024/02/08 09:28:40;;;;;;;4.75;3.20;;;7.90;99.90;;;;;;4984074;28;20204;-50
2024/02/08 09:31:18;;;;;;;4.35;2.50;;;7.90;99.90;;;;;;4980225;28;20632;-50
2024/02/08 09:34:00;;;;;;;3.50;2.10;;;7.90;99.90;;;;;;4982514;28;20225;-47
2024/02/08 09:36:34;;;;;;;4.18;2.55;;;7.90;99.90;;;;;;4978088;28;20210;-47
2024/02/08 09:39:14;;;;;;;3.13;2.05;;;7.90;99.90;;;;;;4965221;28;20210;-46
2024/02/08 09:42:09;;;;;;;4.43;2.83;;;7.90;99.90;;;;;;4960943;28;20205;-47
2024/02/08 09:44:49;;;;;;;4.95;3.47;;;7.90;99.90;;;;;;4959867;28;20242;-46
2024/02/08 09:47:25;;;;;;;3.92;2.50;;;7.90;99.90;;;;;;4974741;28;20198;-46
2024/02/08 09:50:00;;;;;;;4.50;3.20;;;7.90;99.90;;;;;;4982407;28;20233;-46
2024/02/08 09:52:31;;;;;;;5.35;2.47;;;7.90;99.90;;;;;;4966275;28;20946;-46
2024/02/08 09:55:08;;;;;;;4.07;2.45;;;7.90;99.90;;;;;;4959986;28;20225;-46
2024/02/08 09:57:46;;;;;;;3.20;2.45;;;7.90;99.90;;;;;;4964507;28;20325;-45
2024/02/08 10:03:08;;;;;;;4.50;2.30;;;7.90;99.90;;;;;;4972663;28;20302;-46
2024/02/08 10:05:50;;;;;;;3.63;2.53;;;7.90;99.90;;;;;;4964482;28;20219;-46
2024/02/08 10:08:28;;;;;;;3.88;2.60;;;7.90;99.90;;;;;;4984293;28;20296;-45
2024/02/08 10:11:11;;;;;;;3.58;2.63;;;7.90;99.90;;;;;;4981032;28;20228;-45
2024/02/08 10:13:56;;;;;;;3.88;2.47;;;7.80;99.90;;;;;;4982656;28;20278;-46
2024/02/08 10:16:30;;;;;;;2.95;1.88;;;7.90;99.90;;;;;;4979155;28;20239;-45
2024/02/08 10:22:26;;;;;;;5.10;3.00;;;7.80;99.90;;;;;;4968530;28;20587;-46
2024/02/08 10:28:41;;;;;;;4.07;2.45;;;7.90;99.90;;;;;;4967518;28;20200;-45
2024/02/08 10:31:37;;;;;;;4.53;2.88;;;7.90;99.90;;;;;;4953051;28;20816;-45
2024/02/08 10:34:09;;;;;;;4.60;3.20;;;7.90;99.90;;;;;;4976256;28;20246;-46
2024/02/08 10:36:44;;;;;;;3.80;2.78;;;7.90;99.90;;;;;;4963679;28;20231;-45
2024/02/08 10:39:25;;;;;;;5.30;3.55;;;7.90;99.90;;;;;;4959299;28;20564;-46
2024/02/08 10:41:59;;;;;;;7.45;2.53;;;7.90;99.90;;;;;;4981718;28;20191;-47
2024/02/08 10:44:32;;;;;;;5.35;3.00;;;7.90;99.90;;;;;;4976401;28;20305;-48
2024/02/08 10:47:10;;;;;;;4.82;3.78;;;8.00;99.90;;;;;;4974934;28;20686;-48
2024/02/08 10:49:46;;;;;;;4.20;3.00;;;8.00;99.90;;;;;;4982244;28;20217;-48
2024/02/08 10:52:19;;;;;;;4.70;2.45;;;8.00;99.90;;;;;;4983193;28;20640;-48
2024/02/08 10:54:53;;;;;;;5.47;3.23;;;8.00;99.90;;;;;;4978224;28;20248;-46
2024/02/08 10:58:12;;;;;;;4.10;2.95;;;8.00;99.90;;;;;;4984982;28;20419;-50
2024/02/08 11:03:53;;;;;;;3.25;2.40;;;8.00;99.90;;;;;;5065628;28;20573;-47
2024/02/08 11:06:31;;;;;;;3.33;2.67;;;8.00;99.90;;;;;;5021847;28;20247;-47
2024/02/08 11:11:51;;;;;;;4.07;2.50;;;8.00;99.90;;;;;;5037992;28;20188;-49
2024/02/08 11:14:21;;;;;;;3.83;2.22;;;8.00;99.90;;;;;;5031079;28;20464;-48
2024/02/08 11:16:52;;;;;;;2.90;2.20;;;8.00;99.90;;;;;;5031891;28;20204;-47
2024/02/08 11:19:23;;;;;;;3.80;2.70;;;8.00;99.90;;;;;;5035682;28;20220;-49
2024/02/08 11:21:54;;;;;;;4.63;2.85;;;8.10;99.90;;;;;;5031686;28;20456;-48
2024/02/08 11:24:38;;;;;;;2.42;2.00;;;8.00;99.90;;;;;;5029078;28;20234;-48
2024/02/08 11:27:12;;;;;;;2.30;1.83;;;8.00;99.90;;;;;;5028587;28;20199;-45
2024/02/08 11:29:45;;;;;;;4.05;2.38;;;8.00;99.90;;;;;;5029955;28;20632;-49
2024/02/08 11:32:17;;;;;;;2.88;2.20;;;8.00;99.90;;;;;;5026464;28;20193;-51
2024/02/08 11:34:54;;;;;;;3.50;2.30;;;8.00;99.90;;;;;;5033172;28;20596;-48
2024/02/08 11:37:30;;;;;;;3.50;2.67;;;8.00;99.90;;;;;;5029625;28;20297;-48
2024/02/08 11:40:01;;;;;;;2.55;1.80;;;8.00;99.90;;;;;;5030902;28;20470;-49
2024/02/08 11:42:36;;;;;;;3.55;2.10;;;8.00;99.90;;;;;;5024235;28;20559;-46
2024/02/08 11:45:09;;;;;;;2.88;1.70;;;8.00;99.90;;;;;;5024205;28;20222;-45
2024/02/08 11:47:41;;;;;;;3.00;2.47;;;8.00;99.90;;;;;;5032250;28;20193;-47
2024/02/08 11:50:23;;;;;;;3.97;2.05;;;8.00;99.90;;;;;;5032672;28;20636;-46
2024/02/08 11:53:04;;;;;;;2.90;2.03;;;8.00;99.90;;;;;;5029358;28;20677;-45
2024/02/08 11:55:34;;;;;;;3.20;1.90;;;8.00;99.90;;;;;;5025219;28;20472;-45
2024/02/08 11:58:06;;;;;;;2.60;1.70;;;8.10;99.90;;;;;;5033838;28;20213;-46
2024/02/08 12:00:45;;;;;;;2.47;1.80;;;8.00;99.90;;;;;;5039134;28;20527;-45
2024/02/08 12:03:17;;;;;;;3.25;2.15;;;8.00;99.90;;;;;;5027371;28;20723;-45
2024/02/08 12:05:57;;;;;;;3.20;2.17;;;8.00;99.90;;;;;;5032075;28;21179;-45
2024/02/08 12:08:26;;;;;;;4.30;2.20;;;8.10;99.90;;;;;;5034335;28;20200;-46
2024/02/08 12:11:08;;;;;;;3.38;2.20;;;8.10;99.90;;;;;;5032307;28;20229;-44
2024/02/08 12:13:39;;;;;;;3.00;1.80;;;8.10;99.90;;;;;;5025542;28;20304;-51
2024/02/08 12:16:11;;;;;;;2.50;1.58;;;8.10;99.90;;;;;;5011682;28;20545;-46
2024/02/08 12:18:42;;;;;;;2.40;1.60;;;8.10;99.90;;;;;;5013772;28;20204;-46
2024/02/08 12:21:17;;;;;;;2.25;1.60;;;8.10;99.90;;;;;;5013691;28;20476;-46
2024/02/08 12:23:53;;;;;;;2.35;1.70;;;8.10;99.90;;;;;;5013855;28;20225;-46
2024/02/08 12:26:25;;;;;;;3.00;2.05;;;8.10;99.90;;;;;;5014391;28;20301;-47
2024/02/08 12:28:56;;;;;;;2.75;2.03;;;8.10;99.90;;;;;;5014916;28;20258;-46
2024/02/08 12:31:29;;;;;;;2.58;1.60;;;8.10;99.90;;;;;;4999576;28;20216;-47
2024/02/08 12:34:03;;;;;;;3.13;2.05;;;8.10;99.90;;;;;;4998739;28;20242;-46
2024/02/08 12:36:36;;;;;;;2.72;1.77;;;8.10;99.90;;;;;;5016990;28;20222;-48
2024/02/08 12:39:17;;;;;;;2.07;1.70;;;8.10;99.90;;;;;;5011621;28;20701;-47
2024/02/08 12:41:47;;;;;;;2.65;1.60;;;8.10;99.90;;;;;;5021873;28;20985;-47
2024/02/08 12:44:16;;;;;;;2.65;1.85;;;8.10;99.90;;;;;;5024188;28;20593;-46
2024/02/08 12:46:46;;;;;;;2.10;1.90;;;8.10;99.90;;;;;;5014996;28;20283;-46
2024/02/08 12:49:17;;;;;;;2.78;2.05;;;8.00;99.90;;;;;;5019842;28;20629;-49
2024/02/08 12:51:49;;;;;;;2.53;1.75;;;8.10;99.90;;;;;;5023084;28;20707;-46
2024/02/08 12:54:18;;;;;;;2.40;1.65;;;8.00;99.90;;;;;;5012431;28;20260;-46
2024/02/08 12:56:48;;;;;;;2.60;1.80;;;8.00;99.90;;;;;;5015255;28;20232;-48
2024/02/08 12:59:20;;;;;;;2.38;1.50;;;8.00;99.90;;;;;;5021026;28;20236;-48
2024/02/08 13:01:50;;;;;;;2.42;1.70;;;8.00;99.90;;;;;;5013960;28;20202;-48
2024/02/08 13:04:19;;;;;;;2.42;1.70;;;8.00;99.90;;;;;;5017805;28;20219;-46
2024/02/08 13:06:51;;;;;;;2.47;1.75;;;8.00;99.90;;;;;;5017256;28;20217;-47
2024/02/08 13:09:26;;;;;;;3.35;2.45;;;8.00;99.90;;;;;;5017247;28;20290;-45
2024/02/08 13:12:15;;;;;;;2.87;1.70;;;8.00;99.90;;;;;;5015043;28;20299;-46
2024/02/08 13:14:56;;;;;;;2.80;2.30;;;8.00;99.90;;;;;;5020825;28;20458;-48
2024/02/08 13:17:27;;;;;;;3.25;1.73;;;8.00;99.90;;;;;;5013598;28;20540;-50
2024/02/08 13:19:57;;;;;;;2.95;1.92;;;8.00;99.90;;;;;;5014369;28;20218;-47
2024/02/08 13:22:30;;;;;;;2.43;1.53;;;8.00;99.90;;;;;;5013275;28;20597;-48
2024/02/08 13:25:03;;;;;;;2.58;2.38;;;8.00;99.90;;;;;;5012361;28;20882;-46
2024/02/08 13:27:32;;;;;;;1.80;1.25;;;8.00;99.90;;;;;;5023100;28;20194;-48
2024/02/08 13:30:01;;;;;;;2.50;1.73;;;8.00;99.90;;;;;;5015145;28;20710;-50
2024/02/08 13:32:30;;;;;;;2.03;1.47;;;8.00;99.90;;;;;;5017902;28;20451;-46
2024/02/08 13:35:01;;;;;;;2.38;1.70;;;8.00;99.90;;;;;;5019176;28;20873;-49
2024/02/08 13:37:35;;;;;;;3.15;2.03;;;8.00;99.90;;;;;;5012021;28;20726;-47
2024/02/08 13:40:07;;;;;;;1.30;0.98;;;8.00;99.90;;;;;;5010399;28;20224;-48
2024/02/08 13:42:39;;;;;;;2.00;1.50;;;8.00;99.90;;;;;;5012863;28;20252;-48
2024/02/08 13:45:25;;;;;;;2.03;1.40;;;8.00;99.90;;;;;;5015536;28;20315;-51
2024/02/08 13:47:56;;;;;;;2.25;1.70;;;8.00;99.90;;;;;;5019144;28;20220;-46
2024/02/08 13:50:28;;;;;;;3.10;2.08;;;8.00;99.90;;;;;;5020072;28;20218;-50
2024/02/08 13:53:04;;;;;;;2.33;1.75;;;8.00;99.90;;;;;;5013356;28;20221;-47
2024/02/08 13:55:34;;;;;;;1.90;1.40;;;8.00;99.90;;;;;;5013653;28;20238;-48
2024/02/08 13:58:08;;;;;;;2.00;1.35;;;8.00;99.90;;;;;;5016088;28;20250;-50
2024/02/08 14:00:37;;;;;;;2.40;1.40;;;8.00;99.90;;;;;;5014420;28;20232;-46
2024/02/08 14:03:08;;;;;;;3.60;2.53;;;8.00;99.90;;;;;;5014244;28;20494;-47
2024/02/08 14:05:39;;;;;;;2.03;1.42;;;8.00;99.90;;;;;;5013730;28;20467;-47
2024/02/08 14:08:16;;;;;;;2.05;1.35;;;8.00;99.90;;;;;;5011195;28;20261;-48
2024/02/08 14:10:47;;;;;;;1.85;1.20;;;8.00;99.90;;;;;;5021277;28;20230;-48
2024/02/08 14:13:28;;;;;;;2.42;1.50;;;8.00;99.90;;;;;;5012426;28;20642;-48
2024/02/08 14:16:00;;;;;;;2.30;1.50;;;8.00;99.90;;;;;;5021328;28;20256;-48
2024/02/08 14:18:32;;;;;;;2.67;1.30;;;8.00;99.90;;;;;;5010619;28;20537;-47
2024/02/08 14:21:09;;;;;;;2.92;2.10;;;8.00;99.90;;;;;;5018526;28;20835;-47
2024/02/08 14:23:48;;;;;;;2.85;1.98;;;8.00;99.90;;;;;;5011120;28;20240;-47
2024/02/08 14:26:36;;;;;;;4.00;2.10;;;8.00;99.90;;;;;;5016207;28;20224;-50
2024/02/08 14:29:08;;;;;;;2.23;1.70;;;8.00;99.90;;;;;;5023176;28;20508;-47
2024/02/08 14:31:39;;;;;;;3.08;2.33;;;8.00;99.90;;;;;;5014288;28;20451;-50
2024/02/08 14:34:11;;;;;;;1.60;1.10;;;8.00;99.90;;;;;;5015949;28;20331;-47
2024/02/08 14:36:42;;;;;;;2.27;2.00;;;8.00;99.90;;;;;;5017362;28;20227;-48
2024/02/08 14:39:32;;;;;;;2.40;1.70;;;8.00;99.90;;;;;;5014697;28;20449;-48
2024/02/08 14:42:10;;;;;;;2.83;1.38;;;8.00;99.90;;;;;;5010453;28;20740;-48
2024/02/08 14:44:44;;;;;;;1.85;1.23;;;8.00;99.90;;;;;;5018480;28;20225;-50
2024/02/08 14:47:21;;;;;;;1.40;1.10;;;8.00;99.90;;;;;;5011887;28;20201;-48
2024/02/08 14:49:59;;;;;;;1.73;1.10;;;8.00;99.90;;;;;;5016572;28;20218;-50
2024/02/08 14:52:36;;;;;;;1.55;0.98;;;8.00;99.90;;;;;;5018821;28;20918;-48
2024/02/08 14:55:10;;;;;;;2.30;1.27;;;8.00;99.90;;;;;;5010844;28;20723;-46
2024/02/08 14:57:45;;;;;;;2.10;1.70;;;8.00;99.90;;;;;;5017770;28;20265;-46
2024/02/08 15:03:07;;;;;;;2.17;1.05;;;8.00;99.90;;;;;;5016896;28;20223;-46
2024/02/08 15:05:46;;;;;;;1.52;1.00;;;8.00;99.90;;;;;;5021059;28;20226;-47
2024/02/08 15:08:38;;;;;;;1.63;1.13;;;8.00;99.90;;;;;;5018028;28;20196;-47
2024/02/08 15:11:38;;;;;;;1.15;0.88;;;8.00;99.90;;;;;;5017764;28;20314;-48
2024/02/08 15:14:11;;;;;;;2.20;1.30;;;8.00;99.90;;;;;;5009463;28;20643;-47
2024/02/08 15:16:44;;;;;;;1.05;0.75;;;8.00;99.90;;;;;;5023566;28;20197;-47
2024/02/08 15:19:13;;;;;;;2.92;1.20;;;8.00;99.90;;;;;;5013701;28;20197;-49
2024/02/08 15:21:52;;;;;;;1.50;1.15;;;8.00;99.90;;;;;;5015278;28;20197;-45
2024/02/08 15:24:21;;;;;;;1.77;1.05;;;8.00;99.90;;;;;;5012005;28;20236;-45
2024/02/08 15:27:04;;;;;;;1.30;1.20;;;8.00;99.90;;;;;;5011779;28;20290;-46
2024/02/08 15:29:36;;;;;;;3.03;0.88;;;8.00;99.90;;;;;;5011628;28;20234;-47